Terminal Aerodrome Forecast
Issued by NWS Quad Cities IA IL

Home | Current Version | Previous Version | Text Only | Print | Product List | Glossary On
Versions: 1 2 3 4 5 6 7 8 9 10 11 12 13 14 15 16 17 18 19 20 21 22 23 24 25 26
433
FTUS43 KDVN 221138
TAFDBQ
TAF
KDBQ 221138Z 2212/2312 VRB20G33KT P6SM VCSH BKN004 BKN120
     FM221300 16012G18KT P6SM SCT004 BKN070
     FM221500 22008KT P6SM SCT020 BKN070
     FM221800 01008KT P6SM SCT005 BKN035
     FM230000 36003KT 6SM BR SCT005 SCT035
     FM230700 VRB03KT 3SM BR SCT004 BKN035=

USA.gov is the U.S. government's official web portal to all federal, state and local government web resources and services.